Time;durP1;ratioP1;P1;durP2;ratioP2;P2;SDS_P1;SDS_P2;PMS_P1;PMS_P2;Temp;Humidity;BMP_temperature;BMP_pressure;BME280_temperature;BME280_humidity;BME280_pressure;Samples;Min_cycle;Max_cycle;Signal;HPM_P1;HPM_P2
2022/07/29 00:00:28;;;;;;;5.00;4.50;;;;;;;24.07;53.29;99422.97;5072862;28;20502;-76
2022/07/29 00:02:54;;;;;;;8.77;5.07;;;;;;;24.01;53.84;99430.34;5071635;28;20047;-76
2022/07/29 00:05:19;;;;;;;4.97;4.03;;;;;;;23.87;53.78;99414.22;5068849;28;20110;-76
2022/07/29 00:07:45;;;;;;;8.25;4.60;;;;;;;24.01;53.36;99422.59;5070759;28;20521;-75
2022/07/29 00:10:10;;;;;;;5.55;4.47;;;;;;;23.94;53.66;99432.06;5071606;28;20021;-76
2022/07/29 00:12:36;;;;;;;5.65;5.03;;;;;;;23.82;53.69;99427.72;5072836;28;20025;-75
2022/07/29 00:15:02;;;;;;;5.15;4.68;;;;;;;23.86;53.65;99441.16;5063212;28;20029;-76
2022/07/29 00:17:28;;;;;;;5.97;4.82;;;;;;;23.81;53.57;99428.16;5052771;28;20483;-76
2022/07/29 00:19:53;;;;;;;5.93;4.65;;;;;;;23.67;54.46;99432.81;5052195;28;20028;-75
2022/07/29 00:22:19;;;;;;;6.45;4.75;;;;;;;23.27;55.20;99426.72;5052763;28;20029;-76
2022/07/29 00:24:47;;;;;;;7.97;4.90;;;;;;;23.45;54.97;99425.75;5063326;28;20559;-76
2022/07/29 00:27:13;;;;;;;6.90;4.97;;;;;;;23.49;54.72;99423.66;5072520;28;20410;-76
2022/07/29 00:29:38;;;;;;;6.72;4.85;;;;;;;23.42;54.78;99416.78;5072300;28;20029;-75
2022/07/29 00:32:04;;;;;;;7.82;4.60;;;;;;;23.52;54.59;99422.78;5072426;28;20499;-76
2022/07/29 00:37:13;;;;;;;5.25;4.53;;;;;;;23.59;54.41;99433.31;5054031;28;20116;-75
2022/07/29 00:39:39;;;;;;;8.45;5.68;;;;;;;23.53;54.82;99442.34;5050881;28;20108;-75
2022/07/29 00:42:05;;;;;;;7.38;5.43;;;;;;;23.51;54.59;99438.28;5052289;28;20029;-75
2022/07/29 00:44:31;;;;;;;7.40;5.60;;;;;;;23.37;54.98;99440.06;5060131;28;20537;-75
2022/07/29 00:46:56;;;;;;;7.15;4.85;;;;;;;23.40;54.75;99444.13;5072206;28;20020;-75
2022/07/29 00:49:22;;;;;;;8.45;4.97;;;;;;;23.11;56.25;99445.19;5060460;28;20039;-75
2022/07/29 00:51:48;;;;;;;10.93;5.63;;;;;;;22.65;57.17;99429.28;5053397;28;20040;-75
2022/07/29 00:54:14;;;;;;;8.20;6.35;;;;;;;22.16;59.05;99438.53;5051922;28;20072;-74
2022/07/29 00:56:39;;;;;;;6.90;5.88;;;;;;;22.09;59.74;99444.28;5063500;28;20028;-75
2022/07/29 00:59:05;;;;;;;7.93;6.35;;;;;;;21.77;61.06;99431.00;5071790;28;20098;-75
2022/07/29 01:01:30;;;;;;;6.50;5.88;;;;;;;21.47;62.32;99433.13;5071714;28;20024;-75
2022/07/29 01:03:56;;;;;;;16.73;6.55;;;;;;;21.39;62.45;99438.00;5061889;28;20462;-73
2022/07/29 01:06:22;;;;;;;6.97;5.65;;;;;;;21.06;63.59;99434.41;5070438;28;20027;-75
2022/07/29 01:08:49;;;;;;;9.00;6.78;;;;;;;21.00;64.02;99444.59;5071711;28;20025;-75
2022/07/29 01:11:15;;;;;;;9.95;6.38;;;;;;;20.70;64.46;99432.38;5069648;28;20119;-75
2022/07/29 01:13:44;;;;;;;11.80;6.85;;;;;;;20.50;65.57;99451.03;5071468;28;20059;-75
2022/07/29 01:16:17;;;;;;;7.05;6.20;;;;;;;20.85;63.89;99441.72;5071211;28;20029;-75
2022/07/29 01:18:46;;;;;;;14.38;5.93;;;;;;;21.21;62.73;99431.53;5070455;28;20447;-75
2022/07/29 01:21:47;;;;;;;5.43;4.88;;;;;;;21.61;61.17;99437.97;5071415;28;20039;-75
2022/07/29 01:24:39;;;;;;;6.88;5.25;;;;;;;21.84;59.86;99436.66;5062640;28;20484;-76
2022/07/29 01:27:40;;;;;;;6.00;4.63;;;;;;;21.67;60.46;99441.22;5067068;28;20032;-75
2022/07/29 01:30:06;;;;;;;12.38;5.10;;;;;;;21.71;60.21;99442.00;5030662;28;20036;-75
2022/07/29 01:32:36;;;;;;;13.48;5.28;;;;;;;21.65;60.53;99441.59;5070391;28;20028;-75
2022/07/29 01:35:23;;;;;;;5.65;4.88;;;;;;;21.81;60.16;99438.31;5071242;28;20032;-75
2022/07/29 01:37:55;;;;;;;7.13;5.57;;;;;;;21.88;59.65;99431.78;5069970;28;20051;-75
2022/07/29 01:40:27;;;;;;;7.30;6.05;;;;;;;21.84;59.83;99430.97;5067440;28;20033;-75
2022/07/29 01:42:55;;;;;;;6.95;6.25;;;;;;;21.87;59.64;99439.50;5051341;28;20017;-75
2022/07/29 01:45:39;;;;;;;10.93;6.95;;;;;;;21.76;60.05;99435.09;5049877;28;20419;-75
2022/07/29 01:48:22;;;;;;;11.48;7.30;;;;;;;22.14;58.91;99429.59;5055291;28;20506;-75
2022/07/29 01:50:58;;;;;;;7.75;6.95;;;;;;;22.34;58.29;99429.09;5058414;28;20533;-75
2022/07/29 01:53:34;;;;;;;11.15;6.80;;;;;;;22.29;57.96;99418.94;5051086;28;20380;-76
2022/07/29 01:56:01;;;;;;;7.65;5.95;;;;;;;22.45;57.83;99429.84;5049790;28;20025;-76
2022/07/29 01:58:29;;;;;;;14.23;9.40;;;;;;;22.46;57.92;99433.47;5059308;28;20049;-75
2022/07/29 02:00:58;;;;;;;11.23;6.88;;;;;;;22.19;58.75;99437.69;5049571;28;20419;-75
2022/07/29 02:03:26;;;;;;;11.07;7.22;;;;;;;22.07;59.34;99427.63;5058894;28;20064;-75
2022/07/29 02:05:53;;;;;;;8.40;6.43;;;;;;;22.32;58.23;99435.19;5062476;28;20035;-75
2022/07/29 02:08:19;;;;;;;8.88;6.22;;;;;;;22.44;58.23;99431.03;5070451;28;20048;-75
2022/07/29 02:10:48;;;;;;;7.80;6.55;;;;;;;22.55;57.87;99431.00;5063479;28;20461;-75
2022/07/29 02:13:16;;;;;;;12.77;7.32;;;;;;;22.41;57.99;99431.88;5071101;28;20021;-76
2022/07/29 02:15:44;;;;;;;9.98;6.85;;;;;;;21.84;59.48;99428.13;5070819;28;20032;-75
2022/07/29 02:18:15;;;;;;;7.53;6.68;;;;;;;21.90;59.19;99425.66;5059552;28;20017;-75
2022/07/29 02:20:46;;;;;;;8.10;7.30;;;;;;;21.90;58.83;99423.63;5069305;28;20028;-75
2022/07/29 02:23:17;;;;;;;8.27;6.65;;;;;;;21.99;58.45;99417.47;5070754;28;20384;-75
2022/07/29 02:25:43;;;;;;;11.00;6.70;;;;;;;21.99;58.49;99426.84;5070363;28;20020;-75
2022/07/29 02:28:09;;;;;;;7.65;6.85;;;;;;;21.62;59.81;99422.50;5057225;28;20086;-75
2022/07/29 02:30:40;;;;;;;10.85;8.10;;;;;;;21.29;60.77;99424.63;5054573;28;20510;-74
2022/07/29 02:33:07;;;;;;;9.88;7.45;;;;;;;21.51;60.11;99421.72;5069427;28;20081;-75
2022/07/29 02:35:33;;;;;;;8.07;7.28;;;;;;;21.59;59.92;99417.63;5060485;28;20474;-75
2022/07/29 02:40:44;;;;;;;10.75;8.55;;;;;;;20.79;62.68;99414.91;5073212;28;20035;-75
2022/07/29 02:43:10;;;;;;;9.95;8.23;;;;;;;20.99;62.11;99403.97;5072634;28;20024;-75
2022/07/29 02:45:36;;;;;;;16.20;8.85;;;;;;;21.38;60.82;99412.81;5067798;28;20028;-75
2022/07/29 02:48:10;;;;;;;10.32;8.20;;;;;;;21.52;60.51;99411.97;5054174;28;20507;-75
2022/07/29 02:50:44;;;;;;;15.48;8.05;;;;;;;21.36;61.12;99413.25;5058720;28;20037;-76
2022/07/29 02:53:21;;;;;;;16.92;8.65;;;;;;;21.35;61.13;99413.63;5074230;28;20058;-75
2022/07/29 02:56:01;;;;;;;12.88;7.82;;;;;;;21.31;61.01;99407.97;5074207;28;20021;-75
2022/07/29 02:58:58;;;;;;;21.10;9.25;;;;;;;21.37;61.15;99411.19;5072726;28;20052;-75
2022/07/29 03:01:27;;;;;;;23.30;7.78;;;;;;;21.50;60.71;99415.22;5047800;28;20574;-75
2022/07/29 03:03:54;;;;;;;17.38;7.65;;;;;;;21.55;60.20;99419.66;5057914;28;20037;-76
2022/07/29 03:06:25;;;;;;;91.82;12.10;;;;;;;21.43;60.74;99415.25;5060919;28;20496;-75
2022/07/29 03:08:51;;;;;;;16.08;8.65;;;;;;;20.53;62.96;99416.94;5054007;28;20152;-75
2022/07/29 03:11:17;;;;;;;13.00;9.45;;;;;;;20.02;65.30;99436.69;5056657;28;20418;-78
2022/07/29 03:13:43;;;;;;;14.82;8.27;;;;;;;19.89;66.08;99429.72;5074125;28;20021;-80
2022/07/29 03:16:10;;;;;;;13.93;9.32;;;;;;;19.82;66.51;99426.88;5070870;28;20111;-74
2022/07/29 03:18:37;;;;;;;10.32;9.32;;;;;;;19.70;67.05;99440.22;5060430;28;20104;-75
2022/07/29 03:21:03;;;;;;;15.73;9.90;;;;;;;19.72;67.04;99434.94;5076184;28;20029;-74
2022/07/29 03:23:29;;;;;;;18.52;9.95;;;;;;;19.66;67.50;99436.53;5065100;28;20066;-74
2022/07/29 03:25:55;;;;;;;20.02;10.45;;;;;;;19.55;67.92;99435.66;5067353;28;20469;-74
2022/07/29 03:28:21;;;;;;;15.70;11.32;;;;;;;19.68;67.81;99436.97;5066449;28;20119;-73
2022/07/29 03:30:47;;;;;;;18.05;10.68;;;;;;;19.69;67.68;99438.59;5059424;28;20399;-72
2022/07/29 03:33:13;;;;;;;16.80;11.65;;;;;;;19.56;68.26;99440.16;5062181;28;20077;-74
2022/07/29 03:35:38;;;;;;;26.85;11.18;;;;;;;19.56;68.57;99440.16;5065750;28;20095;-77
2022/07/29 03:38:04;;;;;;;29.85;10.98;;;;;;;19.77;67.99;99445.91;5071814;28;20558;-78
2022/07/29 03:40:33;;;;;;;14.82;11.02;;;;;;;19.94;67.59;99446.41;5072510;28;20115;-77
2022/07/29 03:43:00;;;;;;;19.52;12.35;;;;;;;19.98;67.02;99444.41;5058773;28;20522;-81
2022/07/29 03:45:26;;;;;;;15.68;11.55;;;;;;;19.93;67.50;99453.31;5067327;28;20095;-75
2022/07/29 03:47:59;;;;;;;17.45;11.93;;;;;;;19.68;68.72;99448.31;5063374;28;20033;-77
2022/07/29 03:50:25;;;;;;;41.20;12.10;;;;;;;19.61;69.13;99443.41;5068788;28;20163;-77
2022/07/29 03:52:51;;;;;;;17.00;11.50;;;;;;;19.70;68.81;99445.06;5064026;28;20036;-76
2022/07/29 03:55:16;;;;;;;32.08;12.43;;;;;;;19.62;69.40;99445.03;5061667;28;20020;-73
2022/07/29 03:57:44;;;;;;;16.77;13.15;;;;;;;19.55;70.33;99452.69;5063752;28;20265;-72
2022/07/29 04:00:10;;;;;;;25.10;13.02;;;;;;;19.39;71.76;99459.50;5052279;28;20040;-74
2022/07/29 04:02:36;;;;;;;18.75;13.95;;;;;;;19.52;71.39;99459.16;5057826;28;20103;-73
2022/07/29 04:05:02;;;;;;;17.55;13.10;;;;;;;19.69;71.11;99461.28;5069917;28;20079;-77
2022/07/29 04:07:27;;;;;;;23.88;14.05;;;;;;;19.70;70.97;99465.75;5073144;28;20020;-73
2022/07/29 04:09:53;;;;;;;22.65;13.38;;;;;;;19.71;70.73;99466.53;5056580;28;20031;-73
2022/07/29 04:12:20;;;;;;;26.48;13.35;;;;;;;19.81;70.72;99462.16;5054128;28;20044;-73
2022/07/29 04:14:46;;;;;;;17.80;14.07;;;;;;;20.04;69.56;99471.19;5051281;28;20115;-72
2022/07/29 04:17:11;;;;;;;22.70;13.18;;;;;;;20.12;69.48;99466.34;5054952;28;20032;-72
2022/07/29 04:19:37;;;;;;;21.00;14.05;;;;;;;20.42;68.71;99468.03;5053663;28;20480;-72
2022/07/29 04:22:02;;;;;;;21.40;13.88;;;;;;;20.46;68.94;99466.03;5066567;28;20078;-74
2022/07/29 04:24:28;;;;;;;27.05;14.40;;;;;;;20.48;68.79;99465.63;5072525;28;20064;-74
2022/07/29 04:26:54;;;;;;;22.83;13.60;;;;;;;20.66;68.71;99473.38;5072605;28;20081;-74
2022/07/29 04:29:19;;;;;;;15.10;12.32;;;;;;;20.89;68.19;99458.78;5068933;28;20128;-72
2022/07/29 04:31:45;;;;;;;22.35;13.55;;;;;;;21.03;67.58;99463.66;5065858;28;20082;-74
2022/07/29 04:34:12;;;;;;;16.02;12.52;;;;;;;21.11;67.52;99461.63;5072455;28;20483;-74
2022/07/29 04:36:37;;;;;;;20.95;13.68;;;;;;;21.15;67.59;99462.41;5071156;28;20395;-74
2022/07/29 04:39:04;;;;;;;18.15;13.05;;;;;;;21.46;66.48;99462.78;5072123;28;20031;-74
2022/07/29 04:41:29;;;;;;;20.63;13.40;;;;;;;21.58;66.48;99455.84;5072145;28;20040;-74
2022/07/29 04:43:54;;;;;;;24.63;14.73;;;;;;;21.66;66.33;99462.31;5072157;28;20016;-74
2022/07/29 04:46:20;;;;;;;24.05;14.00;;;;;;;21.36;66.79;99461.59;5072198;28;20031;-74
2022/07/29 04:48:47;;;;;;;21.67;14.80;;;;;;;21.51;67.03;99455.88;5072123;28;20073;-74
2022/07/29 04:51:14;;;;;;;18.52;13.52;;;;;;;21.55;66.85;99460.34;5071369;28;20537;-74
2022/07/29 04:53:39;;;;;;;16.92;13.00;;;;;;;21.57;66.53;99472.09;5072117;28;20446;-74
2022/07/29 04:56:05;;;;;;;18.83;14.05;;;;;;;21.73;66.89;99463.16;5071884;28;20029;-74
2022/07/29 04:58:31;;;;;;;22.83;14.15;;;;;;;21.86;66.01;99471.25;5071811;28;20048;-74
2022/07/29 05:00:56;;;;;;;15.90;13.70;;;;;;;21.94;65.72;99478.50;5072164;28;20016;-74
2022/07/29 05:03:22;;;;;;;14.68;12.48;;;;;;;22.22;64.82;99476.78;5071658;28;20025;-72
2022/07/29 05:05:47;;;;;;;26.63;13.07;;;;;;;22.34;63.80;99471.81;5070551;28;20048;-72
2022/07/29 05:08:13;;;;;;;24.80;13.40;;;;;;;22.50;64.06;99469.31;5070016;28;20027;-73
2022/07/29 05:10:38;;;;;;;29.15;12.25;;;;;;;22.75;62.53;99476.06;5070327;28;20103;-74
2022/07/29 05:13:06;;;;;;;16.98;11.02;;;;;;;22.93;61.07;99470.22;5070277;28;20020;-73
2022/07/29 05:15:32;;;;;;;15.65;8.80;;;;;;;23.02;59.08;99469.75;5071518;28;20020;-73
2022/07/29 05:17:58;;;;;;;12.43;8.88;;;;;;;23.05;58.43;99475.41;5071437;28;20580;-74
2022/07/29 05:20:27;;;;;;;20.20;9.13;;;;;;;23.10;58.06;99466.41;5070177;28;20025;-74
2022/07/29 05:22:54;;;;;;;14.52;9.50;;;;;;;23.39;57.69;99471.03;5070315;28;20020;-74
2022/07/29 05:25:20;;;;;;;11.27;8.55;;;;;;;23.47;55.44;99472.59;5071446;28;20518;-74
2022/07/29 05:27:45;;;;;;;13.88;8.60;;;;;;;23.38;56.60;99469.44;5070313;28;20020;-73
2022/07/29 05:30:11;;;;;;;11.23;7.95;;;;;;;23.44;55.77;99470.56;5071391;28;20016;-74
2022/07/29 05:32:36;;;;;;;12.55;7.60;;;;;;;23.37;55.81;99473.53;5070326;28;20017;-74
2022/07/29 05:35:02;;;;;;;15.05;8.73;;;;;;;23.52;54.67;99469.28;5068692;28;20566;-71
2022/07/29 05:37:27;;;;;;;15.30;8.05;;;;;;;23.69;54.15;99476.03;5069556;28;20154;-71
2022/07/29 05:39:53;;;;;;;9.73;6.75;;;;;;;23.94;53.34;99474.09;5057481;28;20024;-71
2022/07/29 05:42:18;;;;;;;11.93;7.15;;;;;;;23.72;53.53;99465.81;5069941;28;20032;-72
2022/07/29 05:44:44;;;;;;;42.00;11.15;;;;;;;23.83;52.39;99477.09;5070460;28;20029;-72
2022/07/29 05:47:09;;;;;;;12.65;7.07;;;;;;;23.86;53.83;99478.28;5071662;28;20097;-72
2022/07/29 05:49:35;;;;;;;13.60;6.97;;;;;;;24.22;52.84;99487.22;5070528;28;20056;-72
2022/07/29 05:52:00;;;;;;;19.17;7.15;;;;;;;24.27;52.12;99493.72;5071874;28;20036;-73
2022/07/29 05:54:26;;;;;;;12.60;7.47;;;;;;;23.84;52.14;99490.94;5071412;28;20024;-73
2022/07/29 05:56:51;;;;;;;14.82;6.60;;;;;;;23.75;51.96;99484.09;5059225;28;20029;-73
2022/07/29 05:59:17;;;;;;;8.30;6.25;;;;;;;23.91;52.03;99486.38;5049901;28;20056;-73
2022/07/29 06:01:42;;;;;;;10.98;6.20;;;;;;;23.88;51.90;99496.59;5061878;28;20119;-73
2022/07/29 06:04:08;;;;;;;11.73;6.68;;;;;;;23.98;49.89;99487.09;5061613;28;20032;-73
2022/07/29 06:06:34;;;;;;;9.38;5.90;;;;;;;24.02;50.83;99492.75;5058276;28;20075;-73
2022/07/29 06:09:00;;;;;;;6.45;5.07;;;;;;;24.40;48.49;99497.63;5057409;28;20028;-72
2022/07/29 06:11:26;;;;;;;8.55;5.35;;;;;;;24.58;49.42;99496.53;5077739;28;20017;-73
2022/07/29 06:13:52;;;;;;;17.17;5.97;;;;;;;24.72;48.40;99499.16;5077751;28;20039;-73
2022/07/29 06:16:18;;;;;;;14.25;5.75;;;;;;;24.93;48.40;99500.13;5076537;28;20464;-73
2022/07/29 06:18:44;;;;;;;11.27;6.43;;;;;;;24.86;48.92;99505.94;5077671;28;20039;-73
2022/07/29 06:21:09;;;;;;;9.90;5.63;;;;;;;25.18;49.99;99499.72;5077655;28;20496;-73
2022/07/29 06:23:37;;;;;;;15.95;5.65;;;;;;;25.42;49.74;99504.59;5077800;28;20085;-72
2022/07/29 06:26:02;;;;;;;378.80;46.58;;;;;;;25.47;48.98;99498.41;5076351;28;20503;-72
2022/07/29 06:28:28;;;;;;;15.35;8.48;;;;;;;25.46;50.36;99491.03;5077799;28;20031;-71
2022/07/29 06:30:53;;;;;;;8.32;6.93;;;;;;;25.15;50.15;99499.75;5078027;28;20456;-71
2022/07/29 06:33:19;;;;;;;14.65;7.53;;;;;;;25.47;50.59;99504.91;5077373;28;20024;-71
2022/07/29 06:35:46;;;;;;;10.75;6.78;;;;;;;25.77;50.46;99502.34;5077241;28;20479;-71
2022/07/29 06:38:13;;;;;;;8.68;7.00;;;;;;;26.07;49.40;99501.31;5077397;28;20027;-71
2022/07/29 06:40:59;;;;;;;14.30;6.00;;;;;;;26.20;49.20;99498.63;5075363;28;20071;-71
2022/07/29 06:43:31;;;;;;;16.90;7.18;;;;;;;26.38;49.36;99499.50;5072383;28;20111;-71
2022/07/29 06:46:01;;;;;;;11.07;7.80;;;;;;;25.68;49.53;99500.06;5074109;28;20075;-71
2022/07/29 06:48:27;;;;;;;10.32;7.40;;;;;;;26.14;49.70;99496.69;5077380;28;20020;-71
2022/07/29 06:50:52;;;;;;;8.57;6.70;;;;;;;26.36;49.09;99482.72;5069875;28;20418;-71
2022/07/29 06:53:18;;;;;;;8.90;7.85;;;;;;;26.02;48.37;99503.88;5071551;28;20028;-71
2022/07/29 06:55:43;;;;;;;8.40;7.60;;;;;;;25.85;50.17;99498.09;5064422;28;20036;-71
2022/07/29 06:58:09;;;;;;;16.05;9.27;;;;;;;26.13;49.33;99492.22;5075775;28;20040;-71
2022/07/29 07:00:35;;;;;;;13.85;8.15;;;;;;;26.32;48.61;99499.22;5077797;28;20408;-71
2022/07/29 07:03:01;;;;;;;11.48;7.88;;;;;;;26.32;48.28;99493.47;5077796;28;20039;-71
2022/07/29 07:05:26;;;;;;;8.52;7.05;;;;;;;26.39;48.04;99490.44;5077093;28;20094;-71
2022/07/29 07:07:52;;;;;;;9.25;8.27;;;;;;;25.98;48.56;99492.50;5075895;28;20027;-71
2022/07/29 07:10:17;;;;;;;11.15;7.68;;;;;;;26.03;49.35;99486.28;5074608;28;20030;-72
2022/07/29 07:12:43;;;;;;;10.40;7.57;;;;;;;25.70;49.34;99483.25;5064005;28;20156;-71
2022/07/29 07:15:09;;;;;;;15.68;7.60;;;;;;;26.17;49.62;99476.53;5062751;28;20487;-71
2022/07/29 07:17:34;;;;;;;14.73;8.50;;;;;;;26.55;47.95;99486.00;5054444;28;20405;-71
2022/07/29 07:20:00;;;;;;;13.43;10.02;;;;;;;26.94;47.49;99481.41;5058219;28;20094;-73
2022/07/29 07:22:25;;;;;;;8.68;7.68;;;;;;;27.22;47.78;99486.88;5073803;28;20453;-73
2022/07/29 07:24:51;;;;;;;16.27;8.05;;;;;;;27.41;46.78;99485.94;5072034;28;20028;-73
2022/07/29 07:27:16;;;;;;;10.88;8.25;;;;;;;27.52;45.94;99481.97;5073448;28;20103;-71
2022/07/29 07:29:41;;;;;;;13.85;8.95;;;;;;;27.27;46.77;99474.84;5072364;28;20410;-72
2022/07/29 07:32:07;;;;;;;16.13;9.07;;;;;;;27.28;45.94;99482.19;5073730;28;20116;-75
2022/07/29 07:34:33;;;;;;;11.63;8.93;;;;;;;27.50;45.79;99475.88;5073574;28;20028;-73
2022/07/29 07:36:59;;;;;;;13.93;7.30;;;;;;;27.87;45.86;99479.38;5069600;28;20143;-77
2022/07/29 07:39:25;;;;;;;13.10;7.88;;;;;;;27.83;45.77;99475.81;5070732;28;20066;-77
2022/07/29 07:41:51;;;;;;;12.20;8.05;;;;;;;28.10;44.89;99481.16;5070754;28;20185;-73
2022/07/29 07:44:17;;;;;;;21.48;8.55;;;;;;;28.23;43.90;99483.28;5069745;28;20123;-78
2022/07/29 07:46:44;;;;;;;9.48;7.15;;;;;;;28.42;43.39;99487.25;5070524;28;20028;-75
2022/07/29 07:49:10;;;;;;;10.70;8.02;;;;;;;28.04;43.13;99480.13;5069522;28;20032;-75
2022/07/29 07:51:36;;;;;;;10.50;7.18;;;;;;;27.97;43.42;99480.31;5069179;28;20479;-76
2022/07/29 07:54:01;;;;;;;16.92;7.85;;;;;;;28.56;43.24;99480.22;5069219;28;20047;-76
2022/07/29 07:56:27;;;;;;;13.48;8.27;;;;;;;28.47;42.83;99477.22;5070487;28;20513;-76
2022/07/29 07:58:52;;;;;;;12.60;7.72;;;;;;;28.45;42.63;99466.19;5070786;28;20053;-74
2022/07/29 08:01:20;;;;;;;10.45;7.55;;;;;;;28.43;42.86;99483.91;5069706;28;20100;-78
2022/07/29 08:03:46;;;;;;;10.65;6.80;;;;;;;28.35;42.75;99471.00;5073018;28;20539;-78
2022/07/29 08:06:11;;;;;;;11.32;7.78;;;;;;;28.69;42.90;99472.41;5071612;28;20028;-77
2022/07/29 08:08:36;;;;;;;9.00;7.18;;;;;;;28.90;41.79;99475.88;5073013;28;20028;-79
2022/07/29 08:11:03;;;;;;;10.07;7.63;;;;;;;28.95;41.89;99472.41;5071554;28;20028;-78
2022/07/29 08:13:29;;;;;;;7.75;7.05;;;;;;;29.00;41.35;99477.59;5072838;28;20096;-79
2022/07/29 08:16:11;;;;;;;10.23;7.82;;;;;;;28.85;41.78;99473.59;5071402;28;20033;-79
2022/07/29 08:18:37;;;;;;;15.15;6.95;;;;;;;29.25;39.94;99470.16;5072800;28;20059;-79
2022/07/29 08:21:03;;;;;;;11.38;7.32;;;;;;;29.43;39.80;99477.38;5072555;28;20413;-79
2022/07/29 08:23:38;;;;;;;12.02;8.00;;;;;;;29.49;39.61;99461.13;5072726;28;20024;-78
2022/07/29 08:26:10;;;;;;;12.32;6.95;;;;;;;29.39;39.75;99460.22;5071464;28;20165;-78
2022/07/29 08:28:40;;;;;;;9.95;6.82;;;;;;;29.70;39.13;99470.28;5071251;28;20032;-78
2022/07/29 08:31:06;;;;;;;8.73;7.32;;;;;;;30.05;38.61;99464.47;5071240;28;20028;-78
2022/07/29 08:33:33;;;;;;;11.90;7.63;;;;;;;30.10;37.71;99466.75;5073087;28;20563;-78
2022/07/29 08:35:58;;;;;;;11.40;7.40;;;;;;;29.84;38.56;99461.09;5071113;28;20052;-75
2022/07/29 08:38:25;;;;;;;9.27;6.80;;;;;;;30.17;37.91;99456.19;5054736;28;20031;-75
2022/07/29 08:40:52;;;;;;;11.60;9.02;;;;;;;30.08;38.33;99456.94;5067136;28;20102;-74
2022/07/29 08:43:19;;;;;;;14.40;8.10;;;;;;;30.37;37.83;99447.97;5071796;28;20459;-75
2022/07/29 08:45:50;;;;;;;8.55;6.05;;;;;;;30.38;36.38;99452.47;5070251;28;20393;-74
2022/07/29 08:48:20;;;;;;;8.35;5.50;;;;;;;30.60;35.37;99445.81;5052882;28;20456;-74
2022/07/29 08:50:47;;;;;;;8.15;7.05;;;;;;;29.45;36.80;99448.94;5052823;28;20103;-75
2022/07/29 08:53:16;;;;;;;8.10;5.30;;;;;;;30.24;36.45;99447.25;5068241;28;20037;-74
2022/07/29 08:55:43;;;;;;;16.65;5.43;;;;;;;30.64;34.02;99446.50;5070353;28;20109;-74
2022/07/29 08:58:10;;;;;;;8.55;4.32;;;;;;;30.91;32.33;99436.34;5071943;28;20044;-74
2022/07/29 09:00:40;;;;;;;5.72;4.57;;;;;;;30.92;32.82;99435.06;5071901;28;20025;-74
2022/07/29 09:03:08;;;;;;;6.13;4.68;;;;;;;30.86;31.34;99428.28;5053117;28;20392;-75
2022/07/29 09:05:34;;;;;;;7.40;4.28;;;;;;;30.96;32.39;99427.03;5052353;28;20052;-74
2022/07/29 09:08:01;;;;;;;11.35;4.78;;;;;;;31.11;32.03;99435.09;5058535;28;20024;-73
2022/07/29 09:10:27;;;;;;;8.30;4.90;;;;;;;31.11;31.77;99420.63;5064764;28;20107;-74
2022/07/29 09:12:55;;;;;;;11.20;5.03;;;;;;;31.22;31.97;99423.91;5071279;28;20100;-75
2022/07/29 09:15:20;;;;;;;8.10;5.03;;;;;;;31.30;31.56;99415.72;5074595;28;20479;-74
2022/07/29 09:17:49;;;;;;;5.07;4.30;;;;;;;31.41;31.74;99428.88;5071790;28;20085;-75
2022/07/29 09:20:20;;;;;;;9.55;5.68;;;;;;;31.46;31.18;99420.38;5067244;28;20560;-75
2022/07/29 09:22:49;;;;;;;6.18;4.82;;;;;;;31.43;30.95;99414.75;5080199;28;20562;-74
2022/07/29 09:25:31;;;;;;;5.30;4.82;;;;;;;31.50;31.10;99412.38;5070593;28;20020;-74
2022/07/29 09:28:12;;;;;;;9.88;4.75;;;;;;;31.62;30.55;99407.69;5071609;28;20031;-75
2022/07/29 09:30:52;;;;;;;10.45;5.53;;;;;;;31.74;29.82;99405.09;5071801;28;20025;-75
2022/07/29 09:33:18;;;;;;;6.57;4.95;;;;;;;31.71;29.85;99398.19;5070895;28;20082;-75
2022/07/29 09:35:43;;;;;;;5.72;4.18;;;;;;;31.77;29.61;99395.44;5071881;28;20107;-75
2022/07/29 09:38:13;;;;;;;6.43;4.53;;;;;;;31.86;27.93;99398.38;5071633;28;20095;-75
2022/07/29 09:40:40;;;;;;;6.60;4.03;;;;;;;32.06;28.16;99399.94;5071208;28;20052;-75
2022/07/29 09:43:12;;;;;;;17.38;4.95;;;;;;;32.15;26.97;99396.19;5071733;28;20047;-75
2022/07/29 09:45:38;;;;;;;6.93;4.95;;;;;;;32.02;27.24;99385.63;5070460;28;20048;-75
2022/07/29 09:48:17;;;;;;;5.35;4.03;;;;;;;32.29;27.99;99398.38;5071692;28;20483;-75
2022/07/29 09:50:44;;;;;;;4.60;3.13;;;;;;;32.25;25.14;99396.97;5058826;28;20024;-75
2022/07/29 09:53:11;;;;;;;7.18;3.78;;;;;;;32.43;26.00;99388.25;5051518;28;20028;-75
2022/07/29 09:55:52;;;;;;;4.00;3.53;;;;;;;32.69;23.57;99387.78;5051516;28;20395;-75
2022/07/29 09:58:19;;;;;;;7.70;3.70;;;;;;;32.87;23.89;99394.75;5051151;28;20102;-75
2022/07/29 10:00:46;;;;;;;8.57;3.60;;;;;;;32.78;24.21;99389.81;5053092;28;20032;-74
2022/07/29 10:03:13;;;;;;;7.32;3.80;;;;;;;33.03;24.48;99384.84;5060834;28;20060;-76
2022/07/29 10:05:40;;;;;;;4.75;3.47;;;;;;;32.89;24.05;99374.81;5066269;28;20463;-76
2022/07/29 10:08:05;;;;;;;3.75;3.35;;;;;;;33.00;24.59;99383.72;5065630;28;20483;-76
2022/07/29 10:10:33;;;;;;;3.35;3.13;;;;;;;33.07;24.11;99394.16;5052076;28;20025;-76
2022/07/29 10:13:04;;;;;;;6.43;3.88;;;;;;;33.24;24.24;99396.63;5052504;28;20087;-75
2022/07/29 10:15:32;;;;;;;4.18;2.95;;;;;;;33.23;22.31;99377.63;5051347;28;20094;-76
2022/07/29 10:17:59;;;;;;;5.50;3.25;;;;;;;33.24;21.28;99388.72;5079529;28;20042;-76
2022/07/29 10:20:26;;;;;;;7.68;2.95;;;;;;;32.94;21.58;99384.91;5071094;28;20107;-76
2022/07/29 10:22:52;;;;;;;4.93;3.28;;;;;;;33.13;23.28;99389.28;5070976;28;20067;-76
2022/07/29 10:25:19;;;;;;;11.23;4.35;;;;;;;33.11;23.84;99371.59;5070796;28;20479;-76
2022/07/29 10:27:47;;;;;;;5.90;3.72;;;;;;;33.24;23.93;99370.53;5071335;28;20031;-76
2022/07/29 10:30:16;;;;;;;6.05;3.92;;;;;;;33.44;24.81;99369.88;5071252;28;20048;-77
2022/07/29 10:33:21;;;;;;;9.27;3.30;;;;;;;33.55;23.39;99369.34;5070318;28;20031;-76
2022/07/29 10:36:05;;;;;;;3.50;3.20;;;;;;;33.48;23.33;99370.50;5069862;28;20027;-76
2022/07/29 10:38:37;;;;;;;5.82;3.03;;;;;;;33.53;22.57;99366.09;5071409;28;20387;-76
2022/07/29 10:41:27;;;;;;;3.70;3.00;;;;;;;33.77;22.95;99360.25;5065974;28;20040;-77
2022/07/29 10:44:03;;;;;;;4.00;2.90;;;;;;;34.01;21.95;99362.25;5060771;28;20041;-77
2022/07/29 10:46:35;;;;;;;6.15;2.95;;;;;;;34.23;21.98;99346.53;5051377;28;20139;-78
2022/07/29 10:49:11;;;;;;;5.07;3.60;;;;;;;34.27;22.42;99355.81;5056100;28;20025;-78
2022/07/29 10:52:00;;;;;;;2.92;2.72;;;;;;;34.29;21.06;99339.50;5075005;28;20024;-78
2022/07/29 10:54:58;;;;;;;3.60;3.25;;;;;;;34.10;22.07;99335.22;5074854;28;20106;-77
2022/07/29 10:57:29;;;;;;;4.82;3.42;;;;;;;34.08;21.48;99332.03;5074728;28;20044;-78
2022/07/29 11:00:15;;;;;;;4.35;2.63;;;;;;;33.96;22.15;99331.81;5071713;28;20033;-77
2022/07/29 11:02:42;;;;;;;4.20;3.00;;;;;;;34.25;22.37;99327.28;5065679;28;20048;-78
2022/07/29 11:05:12;;;;;;;5.97;3.50;;;;;;;34.21;22.61;99326.72;5073431;28;20060;-77
2022/07/29 11:07:58;;;;;;;5.00;3.33;;;;;;;34.07;23.14;99322.53;5074749;28;20040;-78
2022/07/29 11:10:24;;;;;;;3.67;3.10;;;;;;;34.21;22.76;99315.09;5073556;28;20028;-77
2022/07/29 11:12:51;;;;;;;4.70;3.20;;;;;;;34.36;23.08;99302.66;5071896;28;20042;-77
2022/07/29 11:15:22;;;;;;;6.82;3.28;;;;;;;34.63;22.73;99315.19;5074596;28;20020;-77
2022/07/29 11:17:53;;;;;;;4.65;2.95;;;;;;;34.71;21.68;99322.16;5074628;28;20024;-77
2022/07/29 11:20:41;;;;;;;2.80;2.60;;;;;;;34.34;20.95;99313.97;5073053;28;20024;-77
2022/07/29 11:23:19;;;;;;;4.13;3.30;;;;;;;34.47;21.74;99302.81;5073136;28;20123;-77
2022/07/29 11:25:46;;;;;;;4.32;3.92;;;;;;;34.41;21.91;99304.84;5067470;28;20029;-78
2022/07/29 11:28:19;;;;;;;5.85;3.60;;;;;;;34.44;21.74;99300.94;5072791;28;20097;-78
2022/07/29 11:30:50;;;;;;;4.53;3.17;;;;;;;34.56;22.89;99294.00;5056414;28;20021;-78
2022/07/29 11:33:33;;;;;;;3.88;3.42;;;;;;;34.55;22.64;99292.41;5052980;28;20047;-78
2022/07/29 11:36:13;;;;;;;3.17;2.88;;;;;;;34.68;21.15;99291.25;5054331;28;20057;-77
2022/07/29 11:38:39;;;;;;;3.00;2.80;;;;;;;34.73;20.07;99284.69;5053029;28;20024;-78